»·PEaware :: N751LU KPRC-KRYN

N751LU :: KPRC-KRYN

FLIGHT INFORMATION

Flight Status: Arrived
Operator: Privately registered:
United States
More flights under this callsign
Pilot: Ewen S. (18928)
Aircraft: Unknown
(HDJT)
More flights by this aircraft type
Origin: KPRC Love
United States
Destination: KRYN Ryan
United States
More flights between these airports :: More routes between these airports
Route: WNSKI2 FERER V562 PXR V105 ALMON
File this flight plan on PilotEdge
Remarks:
Altitude:
(Current/Filed)
23,000ft
Speed:
(Current/Filed)
350kts
Departed: 05-Jun-23 01:24 PM
Arrived: 05-Jun-23 02:01 PM
Distance/Time
Traveled:
163nm/0:37
Distance/Time
To Go:
Arrived

Flight Plot

Page will automatically refresh every two minutes.

Flight plan parsing failed; only flown route is shown


Map Options




Map Legend


Flown Route
Filed Route
Departure Airport
Arrival Airport
Navaid (VOR, NDB)
Fix

Horizontal Profiles

Position Reports

Time Latitude Longitude Heading Altitude Ground
Speed
05-Jun-23 13:02 34.646553 -112.424744 218 5025ft 0kts
05-Jun-23 13:03 34.646553 -112.424744 218 5025ft 0kts
05-Jun-23 13:04 34.646553 -112.424744 218 5025ft 0kts
05-Jun-23 13:05 34.646553 -112.424744 218 5025ft 0kts
05-Jun-23 13:06 34.646553 -112.424744 218 5025ft 0kts
05-Jun-23 13:07 34.646553 -112.424744 218 5025ft 0kts
05-Jun-23 13:08 34.646553 -112.424744 218 5025ft 0kts
05-Jun-23 13:09 34.646553 -112.424744 218 5025ft 0kts
05-Jun-23 13:10 34.646553 -112.424744 218 5034ft 0kts
05-Jun-23 13:11 34.646553 -112.424744 218 5034ft 0kts
05-Jun-23 13:12 34.646553 -112.424744 218 5034ft 0kts
05-Jun-23 13:13 34.646553 -112.424744 218 5034ft 0kts
05-Jun-23 13:14 34.646553 -112.424744 218 5034ft 0kts
05-Jun-23 13:15 34.646553 -112.424744 218 5034ft 0kts
05-Jun-23 13:16 34.646544 -112.424755 233 5025ft 0kts
05-Jun-23 13:17 34.646885 -112.424905 345 5024ft 0kts
05-Jun-23 13:18 34.648179 -112.424493 40 5022ft 0kts
05-Jun-23 13:19 34.649729 -112.426038 322 5020ft 13kts
05-Jun-23 13:20 34.651550 -112.428069 323 5018ft 0kts
05-Jun-23 13:21 34.652248 -112.428435 20 5020ft 0kts
05-Jun-23 13:22 34.652720 -112.427920 129 5020ft 0kts
05-Jun-23 13:23 34.636408 -112.407485 130 5360ft 151kts
05-Jun-23 13:24 34.614320 -112.359591 133 7712ft 183kts
05-Jun-23 13:25 34.576358 -112.305692 133 9895ft 233kts
05-Jun-23 13:26 34.529633 -112.240301 134 10272ft 249kts
05-Jun-23 13:27 34.485911 -112.181397 134 13040ft 237kts
05-Jun-23 13:28 34.438831 -112.117818 134 15046ft 271kts
05-Jun-23 13:29 34.387092 -112.047981 135 17177ft 286kts
05-Jun-23 13:30 34.332574 -111.974558 135 19093ft 300kts
05-Jun-23 13:31 34.275391 -111.897747 136 20896ft 312kts
05-Jun-23 13:32 34.212865 -111.823837 153 22789ft 317kts
05-Jun-23 13:33 34.121718 -111.811725 193 22823ft 356kts
05-Jun-23 13:34 34.021008 -111.835028 192 22808ft 368kts
05-Jun-23 13:35 33.922068 -111.857868 192 22798ft 362kts
05-Jun-23 13:36 33.828592 -111.879427 192 22816ft 363kts
05-Jun-23 13:37 33.730630 -111.901975 192 22842ft 364kts
05-Jun-23 13:38 33.631367 -111.924800 192 22848ft 363kts
05-Jun-23 13:39 33.531790 -111.947601 192 22843ft 363kts
05-Jun-23 13:40 33.432483 -111.968549 184 22797ft 364kts
05-Jun-23 13:41 33.331066 -111.958798 177 22795ft 366kts
05-Jun-23 13:42 33.229436 -111.947244 177 22803ft 366kts
05-Jun-23 13:43 33.128121 -111.935815 177 22794ft 366kts
05-Jun-23 13:44 33.026500 -111.924437 177 22379ft 364kts
05-Jun-23 13:45 32.928199 -111.913430 177 20458ft 349kts
05-Jun-23 13:46 32.839017 -111.869627 149 18577ft 357kts
05-Jun-23 13:47 32.757829 -111.802540 149 16587ft 353kts
05-Jun-23 13:48 32.678343 -111.736945 148 14634ft 332kts
05-Jun-23 13:49 32.608911 -111.679836 147 12847ft 301kts
05-Jun-23 13:50 32.538609 -111.621939 146 11381ft 310kts
05-Jun-23 13:51 32.470331 -111.565843 146 9985ft 292kts
05-Jun-23 13:52 32.406982 -111.513919 147 8899ft 256kts
05-Jun-23 13:53 32.355496 -111.457216 135 8440ft 257kts
05-Jun-23 13:54 32.307735 -111.393882 135 7382ft 258kts
05-Jun-23 13:55 32.261425 -111.332442 134 5977ft 244kts
05-Jun-23 13:56 32.216483 -111.272834 135 4493ft 242kts
05-Jun-23 13:57 32.172385 -111.214438 134 3811ft 235kts
05-Jun-23 13:58 32.173228 -111.151775 100 3358ft 155kts
05-Jun-23 13:59 32.148180 -111.153785 239 2576ft 139kts
05-Jun-23 14:00 32.140587 -111.177538 211 2402ft 6kts
05-Jun-23 14:01 32.138449 -111.176185 78 2408ft 0kts
05-Jun-23 14:02 32.138449 -111.176185 78 2408ft 0kts

Navigation Log

Ident Type
Flight plan parsing failed, navigation log unavailable